CSX7 weather

Exeter Airport
Sexsmith, Ontario, Canada

Public forecast

Using degrees Celsius for public forecast. Weather courtesy of forecast.io.

METAR (pilot weather report)

Closest report is London Airport, 25.6 nm (47.4 km) SE. Retrieved 2019/05/19 12:00 UTC (54 minutes ago):

CYXU 191200Z 15004KT 12SM FEW070 16/14 A2983 RMK AC2 SLP101 DENSITY ALT 1400FT

TAF (pilot weather forecast)

Closest forecast is London Airport, 25.6 nm (47.4 km) SE. Retrieved 2019/05/19 12:39 UTC (15 minutes ago):

TAF CYXU 191138Z 1912/2012 VRB03KT P6SM SCT070 BECMG 1912/1914 19012KT FM191600 20015G25KT P6SM SCT240 FM192100 20015G25KT P6SM -SHRA BKN050 TEMPO 1921/2001 4SM -SHRA BR SCT008 BKN020 OVC050 PROB30 1921/2001 VRB20G35KT 11/2SM +TSRA BR BKN050CB FM200100 22020G35KT 6SM -SHRA BR SCT007 OVC030 PROB30 2001/2004 VRB20G30KT 1SM TSRA BR BKN007 OVC025CB FM200400 22012G22KT P6SM BKN008 OVC015 FM201100 26015G25KT P6SM BKN020 RMK NXT FCST BY 191800Z